Time;durP1;ratioP1;P1;durP2;ratioP2;P2;SDS_P1;SDS_P2;PMS_P1;PMS_P2;Temp;Humidity;BMP_temperature;BMP_pressure;BME280_temperature;BME280_humidity;BME280_pressure;Samples;Min_cycle;Max_cycle;Signal;HPM_P1;HPM_P2
2022/10/29 00:00:24;;;;;;;14.73;3.78;;;;;;;;;;5145919;27;20099;-80
2022/10/29 00:02:50;;;;;;;16.50;3.80;;;;;;;;;;5145156;27;20058;-80
2022/10/29 00:05:17;;;;;;;12.73;3.72;;;;;;;;;;5114067;27;20113;-80
2022/10/29 00:07:43;;;;;;;13.68;3.88;;;;;;;;;;5127241;27;20422;-80
2022/10/29 00:10:09;;;;;;;14.25;3.90;;;;;;;;;;5146123;27;20063;-80
2022/10/29 00:12:36;;;;;;;17.63;3.72;;;;;;;;;;5128509;27;20059;-80
2022/10/29 00:15:03;;;;;;;17.65;4.90;;;;;;;;;;5127842;27;20051;-80
2022/10/29 00:17:29;;;;;;;13.38;4.43;;;;;;;;;;5140795;27;20047;-80
2022/10/29 00:19:55;;;;;;;11.95;3.75;;;;;;;;;;5136448;27;20031;-81
2022/10/29 00:22:21;;;;;;;12.95;3.97;;;;;;;;;;5128424;27;20100;-80
2022/10/29 00:24:48;;;;;;;17.23;4.32;;;;;;;;;;5133683;27;20054;-80
2022/10/29 00:27:14;;;;;;;12.48;3.33;;;;;;;;;;5142706;27;20047;-80
2022/10/29 00:29:40;;;;;;;11.95;3.72;;;;;;;;;;5127306;27;20059;-80
2022/10/29 00:32:08;;;;;;;13.02;3.85;;;;;;;;;;5127764;27;20057;-80
2022/10/29 00:34:36;;;;;;;18.70;4.85;;;;;;;;;;5144754;27;20047;-80
2022/10/29 00:37:02;;;;;;;10.50;3.80;;;;;;;;;;5143642;27;20466;-80
2022/10/29 00:39:29;;;;;;;13.80;4.00;;;;;;;;;;5127965;27;20434;-79
2022/10/29 00:41:55;;;;;;;16.60;4.05;;;;;;;;;;5127852;27;20050;-80
2022/10/29 00:44:24;;;;;;;22.88;4.75;;;;;;;;;;5143438;27;20066;-79
2022/10/29 00:46:56;;;;;;;17.33;4.40;;;;;;;;;;5131776;27;20047;-80
2022/10/29 00:49:23;;;;;;;16.88;4.20;;;;;;;;;;5125737;27;20058;-79
2022/10/29 00:51:50;;;;;;;11.32;4.55;;;;;;;;;;5113531;27;20693;-79
2022/10/29 00:54:17;;;;;;;15.30;4.00;;;;;;;;;;5134392;27;20058;-79
2022/10/29 00:56:46;;;;;;;12.30;4.65;;;;;;;;;;5129135;27;20051;-79
2022/10/29 00:59:14;;;;;;;12.98;4.22;;;;;;;;;;5141182;27;20461;-79
2022/10/29 01:01:41;;;;;;;15.13;4.80;;;;;;;;;;5107873;27;20059;-80
2022/10/29 01:04:08;;;;;;;17.17;4.75;;;;;;;;;;5136443;27;20047;-79
2022/10/29 01:06:34;;;;;;;13.75;4.65;;;;;;;;;;5145256;27;20056;-79
2022/10/29 01:09:01;;;;;;;18.33;5.05;;;;;;;;;;5124705;27;20051;-80
2022/10/29 01:11:30;;;;;;;14.98;4.28;;;;;;;;;;5126957;27;20513;-79
2022/10/29 01:14:05;;;;;;;14.73;4.30;;;;;;;;;;5126188;27;20054;-79
2022/10/29 01:16:38;;;;;;;26.60;4.38;;;;;;;;;;5124559;27;20058;-79
2022/10/29 01:19:10;;;;;;;16.55;4.03;;;;;;;;;;5128037;27;20047;-79
2022/10/29 01:21:57;;;;;;;14.15;4.95;;;;;;;;;;5146788;27;20056;-80
2022/10/29 01:24:46;;;;;;;9.32;3.47;;;;;;;;;;5143282;27;20055;-80
2022/10/29 01:27:30;;;;;;;9.02;3.15;;;;;;;;;;5099346;27;20522;-80
2022/10/29 01:30:03;;;;;;;6.78;3.17;;;;;;;;;;5128418;27;20074;-80
2022/10/29 01:32:29;;;;;;;9.95;3.67;;;;;;;;;;5144996;27;20059;-80
2022/10/29 01:35:06;;;;;;;10.93;3.47;;;;;;;;;;5129239;27;20059;-80
2022/10/29 01:37:39;;;;;;;11.40;4.00;;;;;;;;;;5130878;27;20055;-80
2022/10/29 01:40:25;;;;;;;8.35;3.38;;;;;;;;;;5130129;27;20066;-80
2022/10/29 01:43:12;;;;;;;8.82;3.30;;;;;;;;;;5127291;27;20066;-80
2022/10/29 01:45:44;;;;;;;10.38;3.38;;;;;;;;;;5132915;27;20054;-79
2022/10/29 01:48:18;;;;;;;13.57;3.78;;;;;;;;;;5132744;27;20055;-80
2022/10/29 01:50:47;;;;;;;15.82;3.58;;;;;;;;;;5133166;27;21202;-79
2022/10/29 01:53:13;;;;;;;12.38;3.85;;;;;;;;;;5134053;27;20060;-79
2022/10/29 01:55:39;;;;;;;13.05;3.90;;;;;;;;;;5129614;27;20052;-80
2022/10/29 01:58:06;;;;;;;14.05;4.95;;;;;;;;;;5130567;27;20047;-80
2022/10/29 02:00:36;;;;;;;11.73;4.60;;;;;;;;;;5116630;27;20055;-80
2022/10/29 02:03:10;;;;;;;15.88;4.80;;;;;;;;;;5138971;27;20047;-79
2022/10/29 02:05:42;;;;;;;11.73;4.10;;;;;;;;;;5116954;27;20055;-80
2022/10/29 02:08:14;;;;;;;18.83;4.90;;;;;;;;;;5144706;27;20047;-80
2022/10/29 02:10:50;;;;;;;13.95;4.05;;;;;;;;;;5149807;27;20549;-80
2022/10/29 02:13:18;;;;;;;17.27;4.60;;;;;;;;;;5130828;27;20064;-79
2022/10/29 02:15:49;;;;;;;13.95;4.30;;;;;;;;;;5125258;27;20100;-79
2022/10/29 02:18:15;;;;;;;;;;;;;;;;;;5149009;27;20062;-80
2022/10/29 02:20:42;;;;;;;15.88;4.10;;;;;;;;;;5129407;27;46988;-80
2022/10/29 02:23:09;;;;;;;16.60;4.13;;;;;;;;;;5148493;27;20062;-80
2022/10/29 02:25:35;;;;;;;11.48;4.20;;;;;;;;;;5129642;27;20945;-80
2022/10/29 02:28:02;;;;;;;15.63;4.57;;;;;;;;;;5131140;27;20058;-80
2022/10/29 02:30:28;;;;;;;13.35;4.22;;;;;;;;;;5149125;27;20052;-80
2022/10/29 02:32:54;;;;;;;15.60;3.95;;;;;;;;;;5149551;27;20058;-80
2022/10/29 02:35:21;;;;;;;18.98;4.97;;;;;;;;;;5116202;27;20051;-80
2022/10/29 02:37:48;;;;;;;21.17;5.18;;;;;;;;;;5114188;27;20058;-80
2022/10/29 02:40:14;;;;;;;17.58;5.18;;;;;;;;;;5129456;27;20104;-80
2022/10/29 02:42:40;;;;;;;22.33;5.07;;;;;;;;;;5130012;27;20055;-80
2022/10/29 02:45:07;;;;;;;19.73;5.85;;;;;;;;;;5130510;27;20055;-80
2022/10/29 02:47:33;;;;;;;19.40;4.85;;;;;;;;;;5148968;27;20497;-80
2022/10/29 02:49:59;;;;;;;25.88;6.45;;;;;;;;;;5113971;27;20771;-80
2022/10/29 02:52:26;;;;;;;44.03;7.68;;;;;;;;;;5130639;27;20074;-80
2022/10/29 02:54:52;;;;;;;24.15;7.82;;;;;;;;;;5119615;27;20063;-80
2022/10/29 02:57:18;;;;;;;28.08;7.15;;;;;;;;;;5129517;27;20083;-80
2022/10/29 02:59:44;;;;;;;30.85;8.60;;;;;;;;;;5125113;27;20047;-80
2022/10/29 03:02:11;;;;;;;47.33;8.93;;;;;;;;;;5130514;27;20062;-80
2022/10/29 03:04:38;;;;;;;39.97;8.25;;;;;;;;;;5138198;27;20058;-80
2022/10/29 03:07:04;;;;;;;65.38;9.05;;;;;;;;;;5111278;27;20078;-80
2022/10/29 03:09:30;;;;;;;70.32;9.20;;;;;;;;;;5148135;27;20152;-80
2022/10/29 03:11:57;;;;;;;48.08;10.05;;;;;;;;;;5147138;27;20112;-80
2022/10/29 03:14:23;;;;;;;35.85;9.27;;;;;;;;;;5130691;27;20047;-80
2022/10/29 03:16:49;;;;;;;26.02;7.28;;;;;;;;;;5131029;27;20662;-80
2022/10/29 03:19:16;;;;;;;25.08;7.30;;;;;;;;;;5130851;27;20522;-80
2022/10/29 03:21:42;;;;;;;41.85;8.63;;;;;;;;;;5129982;27;20047;-80
2022/10/29 03:24:08;;;;;;;36.15;8.13;;;;;;;;;;5123530;27;20062;-80
2022/10/29 03:26:34;;;;;;;80.82;9.30;;;;;;;;;;5110710;27;20887;-80
2022/10/29 03:29:01;;;;;;;44.88;8.57;;;;;;;;;;5128282;27;20074;-80
2022/10/29 03:31:27;;;;;;;52.10;8.65;;;;;;;;;;5129344;27;20053;-80
2022/10/29 03:33:53;;;;;;;37.03;7.93;;;;;;;;;;5129747;27;20043;-80
2022/10/29 03:36:20;;;;;;;23.65;8.25;;;;;;;;;;5110965;27;20058;-80
2022/10/29 03:38:46;;;;;;;20.00;8.18;;;;;;;;;;5145623;27;20050;-80
2022/10/29 03:41:13;;;;;;;28.02;7.35;;;;;;;;;;5149326;27;20051;-80
2022/10/29 03:43:39;;;;;;;74.40;10.20;;;;;;;;;;5148433;27;20497;-80
2022/10/29 03:46:06;;;;;;;81.22;9.77;;;;;;;;;;5148466;27;20051;-80
2022/10/29 03:48:33;;;;;;;30.10;8.75;;;;;;;;;;5148242;27;20058;-80
2022/10/29 03:51:00;;;;;;;59.28;9.73;;;;;;;;;;5148982;27;20055;-80
2022/10/29 03:53:27;;;;;;;54.80;10.27;;;;;;;;;;5128238;27;20733;-80
2022/10/29 03:55:54;;;;;;;36.08;8.88;;;;;;;;;;5130143;27;20497;-81
2022/10/29 03:58:21;;;;;;;18.77;8.95;;;;;;;;;;5128873;27;20857;-80
2022/10/29 04:00:58;;;;;;;60.58;11.00;;;;;;;;;;5125486;27;20051;-81
2022/10/29 04:03:24;;;;;;;45.67;9.30;;;;;;;;;;5130483;27;20055;-81
2022/10/29 04:05:50;;;;;;;48.33;10.50;;;;;;;;;;5129556;27;20948;-80
2022/10/29 04:08:17;;;;;;;27.00;8.50;;;;;;;;;;5138542;27;20048;-80
2022/10/29 04:10:44;;;;;;;40.03;10.45;;;;;;;;;;5130829;27;20424;-80
2022/10/29 04:13:11;;;;;;;30.55;9.73;;;;;;;;;;5148133;27;20055;-80
2022/10/29 04:15:37;;;;;;;24.75;9.32;;;;;;;;;;5129449;27;20055;-80
2022/10/29 04:18:03;;;;;;;70.05;11.02;;;;;;;;;;5129638;27;20441;-80
2022/10/29 04:20:30;;;;;;;18.40;9.18;;;;;;;;;;5148809;27;20047;-80
2022/10/29 04:23:16;;;;;;;17.45;9.18;;;;;;;;;;5148033;27;20059;-80
2022/10/29 04:26:02;;;;;;;17.77;8.68;;;;;;;;;;5116075;27;20051;-80
2022/10/29 04:28:49;;;;;;;16.15;8.13;;;;;;;;;;5148633;27;20059;-80
2022/10/29 04:31:16;;;;;;;15.95;8.50;;;;;;;;;;5129333;27;20046;-80
2022/10/29 04:33:42;;;;;;;14.07;8.45;;;;;;;;;;5127023;27;20063;-80
2022/10/29 04:36:09;;;;;;;16.88;8.77;;;;;;;;;;5109173;27;20040;-80
2022/10/29 04:38:35;;;;;;;18.10;9.85;;;;;;;;;;5136149;27;20515;-80
2022/10/29 04:41:01;;;;;;;19.90;8.85;;;;;;;;;;5148525;27;20059;-80
2022/10/29 04:43:28;;;;;;;16.85;8.80;;;;;;;;;;5128760;27;20065;-80
2022/10/29 04:45:55;;;;;;;14.77;8.10;;;;;;;;;;5125373;27;20058;-80
2022/10/29 04:48:23;;;;;;;14.70;8.40;;;;;;;;;;5124259;27;20134;-80
2022/10/29 04:50:50;;;;;;;19.05;8.80;;;;;;;;;;5127521;27;20051;-80
2022/10/29 04:53:17;;;;;;;16.27;8.95;;;;;;;;;;5147917;27;20062;-80
2022/10/29 04:55:43;;;;;;;14.25;7.82;;;;;;;;;;5127513;27;20047;-80
2022/10/29 04:58:19;;;;;;;17.20;9.05;;;;;;;;;;5122315;27;20062;-80
2022/10/29 05:00:45;;;;;;;16.42;8.95;;;;;;;;;;5119702;27;20513;-80
2022/10/29 05:03:11;;;;;;;16.67;9.70;;;;;;;;;;5113605;27;20063;-80
2022/10/29 05:05:38;;;;;;;15.40;8.25;;;;;;;;;;5145532;27;20077;-80
2022/10/29 05:08:05;;;;;;;14.90;8.95;;;;;;;;;;5148233;27;20063;-80
2022/10/29 05:10:33;;;;;;;15.25;8.55;;;;;;;;;;5128884;27;20102;-80
2022/10/29 05:13:00;;;;;;;17.08;9.02;;;;;;;;;;5128912;27;20047;-80
2022/10/29 05:15:27;;;;;;;16.55;8.23;;;;;;;;;;5144356;27;20058;-80
2022/10/29 05:17:54;;;;;;;14.15;8.10;;;;;;;;;;5133408;27;20055;-80
2022/10/29 05:20:21;;;;;;;19.50;8.77;;;;;;;;;;5132455;27;20587;-80
2022/10/29 05:22:47;;;;;;;15.98;8.82;;;;;;;;;;5148996;27;20099;-80
2022/10/29 05:25:14;;;;;;;16.63;8.68;;;;;;;;;;5128526;27;20050;-80
2022/10/29 05:27:40;;;;;;;14.85;8.57;;;;;;;;;;5130940;27;20060;-80
2022/10/29 05:30:07;;;;;;;15.80;9.02;;;;;;;;;;5128631;27;20059;-80
2022/10/29 05:32:33;;;;;;;15.65;8.43;;;;;;;;;;5131716;27;20061;-81
2022/10/29 05:35:04;;;;;;;17.75;9.07;;;;;;;;;;5125560;27;20048;-80
2022/10/29 05:37:31;;;;;;;14.63;8.70;;;;;;;;;;5148910;27;20058;-81
2022/10/29 05:39:57;;;;;;;14.75;8.32;;;;;;;;;;5133215;27;20062;-80
2022/10/29 05:42:23;;;;;;;15.65;8.63;;;;;;;;;;5130130;27;20088;-79
2022/10/29 05:44:50;;;;;;;14.48;7.63;;;;;;;;;;5140652;27;20066;-80
2022/10/29 05:47:16;;;;;;;18.20;8.27;;;;;;;;;;5112335;27;20055;-80
2022/10/29 05:49:42;;;;;;;17.55;8.48;;;;;;;;;;5123458;27;20058;-80
2022/10/29 05:52:09;;;;;;;19.20;9.00;;;;;;;;;;5133299;27;20065;-80
2022/10/29 05:54:35;;;;;;;16.23;8.82;;;;;;;;;;5149622;27;20047;-80
2022/10/29 05:57:01;;;;;;;19.58;9.15;;;;;;;;;;5132625;27;20402;-80
2022/10/29 05:59:27;;;;;;;21.25;10.45;;;;;;;;;;5131399;27;20084;-80
2022/10/29 06:01:59;;;;;;;22.95;10.63;;;;;;;;;;5148825;27;20053;-80
2022/10/29 06:04:25;;;;;;;24.73;11.50;;;;;;;;;;5147815;27;20055;-80
2022/10/29 06:06:51;;;;;;;21.85;10.65;;;;;;;;;;5146154;27;20055;-80
2022/10/29 06:09:18;;;;;;;20.92;10.07;;;;;;;;;;5135435;27;20062;-81
2022/10/29 06:11:44;;;;;;;20.20;11.10;;;;;;;;;;5130242;27;20059;-81
2022/10/29 06:14:10;;;;;;;20.92;11.10;;;;;;;;;;5146870;27;20508;-80
2022/10/29 06:16:37;;;;;;;19.13;10.48;;;;;;;;;;5139259;27;20051;-80
2022/10/29 06:19:03;;;;;;;22.75;10.50;;;;;;;;;;5111473;27;20063;-80
2022/10/29 06:21:29;;;;;;;21.48;9.93;;;;;;;;;;5135481;27;20497;-81
2022/10/29 06:23:55;;;;;;;23.17;10.18;;;;;;;;;;5119610;27;20047;-80
2022/10/29 06:26:22;;;;;;;18.67;10.73;;;;;;;;;;5145667;27;20055;-80
2022/10/29 06:28:48;;;;;;;23.20;10.75;;;;;;;;;;5140486;27;20051;-80
2022/10/29 06:31:14;;;;;;;20.02;11.23;;;;;;;;;;5145155;27;20055;-80
2022/10/29 06:33:41;;;;;;;23.50;11.27;;;;;;;;;;5135466;27;20055;-81
2022/10/29 06:36:07;;;;;;;20.02;11.23;;;;;;;;;;5143768;27;20051;-81
2022/10/29 06:38:33;;;;;;;22.13;10.93;;;;;;;;;;5126562;27;20077;-80
2022/10/29 06:41:00;;;;;;;22.55;10.93;;;;;;;;;;5128781;27;20043;-81
2022/10/29 06:43:26;;;;;;;21.70;10.23;;;;;;;;;;5129426;27;20545;-80
2022/10/29 06:45:52;;;;;;;21.65;9.25;;;;;;;;;;5149172;27;20059;-80
2022/10/29 06:48:19;;;;;;;24.77;9.32;;;;;;;;;;5114412;27;20051;-80
2022/10/29 06:50:48;;;;;;;19.88;10.60;;;;;;;;;;5128460;27;20179;-81
2022/10/29 06:53:14;;;;;;;20.70;11.07;;;;;;;;;;5146221;27;20051;-81
2022/10/29 06:55:40;;;;;;;23.27;11.68;;;;;;;;;;5149625;27;20085;-80
2022/10/29 06:58:10;;;;;;;25.95;11.38;;;;;;;;;;5141449;27;20071;-80
2022/10/29 07:00:37;;;;;;;19.92;10.60;;;;;;;;;;5126586;27;20066;-80
2022/10/29 07:03:06;;;;;;;21.95;11.88;;;;;;;;;;5149140;27;20067;-83
2022/10/29 07:05:33;;;;;;;21.67;10.75;;;;;;;;;;5145523;27;20047;-79
2022/10/29 07:08:00;;;;;;;22.80;11.60;;;;;;;;;;5145946;27;20043;-80
2022/10/29 07:10:27;;;;;;;23.33;11.27;;;;;;;;;;5123548;27;20051;-80
2022/10/29 07:12:54;;;;;;;22.35;11.50;;;;;;;;;;5128832;27;20079;-79
2022/10/29 07:15:20;;;;;;;25.02;12.00;;;;;;;;;;5130270;27;20532;-79
2022/10/29 07:17:59;;;;;;;22.45;11.13;;;;;;;;;;5142262;27;20055;-79
2022/10/29 07:20:29;;;;;;;22.52;11.60;;;;;;;;;;5128294;27;20903;-80
2022/10/29 07:22:56;;;;;;;;;;;;;;;;;;5127250;27;20297;-78
2022/10/29 07:25:23;;;;;;;23.52;12.32;;;;;;;;;;5123648;27;47253;-80
2022/10/29 07:27:49;;;;;;;28.48;12.77;;;;;;;;;;5130553;27;20047;-80
2022/10/29 07:30:16;;;;;;;26.42;12.65;;;;;;;;;;5134551;27;20516;-79
2022/10/29 07:32:42;;;;;;;24.13;12.95;;;;;;;;;;5126561;27;20058;-80
2022/10/29 07:35:08;;;;;;;28.75;14.02;;;;;;;;;;5144885;27;20059;-80
2022/10/29 07:37:35;;;;;;;32.67;15.30;;;;;;;;;;5137977;27;20944;-79
2022/10/29 07:40:01;;;;;;;34.97;16.95;;;;;;;;;;5141379;27;20054;-80
2022/10/29 07:42:27;;;;;;;36.13;17.02;;;;;;;;;;5149870;27;20101;-80
2022/10/29 07:44:54;;;;;;;33.72;16.00;;;;;;;;;;5155850;27;20063;-80
2022/10/29 07:47:20;;;;;;;37.38;17.13;;;;;;;;;;5146717;27;20027;-79
2022/10/29 07:49:46;;;;;;;34.97;17.08;;;;;;;;;;5152788;27;20047;-80
2022/10/29 07:52:13;;;;;;;31.75;15.80;;;;;;;;;;5128198;27;20042;-80
2022/10/29 07:54:39;;;;;;;34.13;15.80;;;;;;;;;;5132013;27;20083;-80
2022/10/29 07:57:05;;;;;;;37.42;17.20;;;;;;;;;;5141813;27;20677;-80
2022/10/29 07:59:32;;;;;;;37.10;17.65;;;;;;;;;;5123341;27;20077;-80
2022/10/29 08:01:58;;;;;;;38.88;18.17;;;;;;;;;;5142917;27;20540;-79
2022/10/29 08:04:24;;;;;;;36.67;17.77;;;;;;;;;;5138546;27;20104;-80
2022/10/29 08:06:51;;;;;;;36.30;17.40;;;;;;;;;;5150306;27;20055;-80
2022/10/29 08:09:17;;;;;;;33.40;17.75;;;;;;;;;;5140293;27;20054;-80
2022/10/29 08:11:43;;;;;;;40.22;16.48;;;;;;;;;;5143482;27;20063;-80
2022/10/29 08:14:11;;;;;;;33.08;15.88;;;;;;;;;;5143215;27;20047;-80
2022/10/29 08:16:37;;;;;;;39.55;16.88;;;;;;;;;;5118437;27;20117;-80
2022/10/29 08:19:04;;;;;;;30.80;15.63;;;;;;;;;;5126222;27;20051;-80
2022/10/29 08:21:30;;;;;;;34.90;16.52;;;;;;;;;;5145414;27;20051;-80
2022/10/29 08:23:56;;;;;;;35.10;16.27;;;;;;;;;;5138438;27;20050;-80
2022/10/29 08:26:23;;;;;;;39.60;16.20;;;;;;;;;;5143652;27;20055;-80
2022/10/29 08:28:49;;;;;;;33.30;15.88;;;;;;;;;;5139486;27;20054;-80
2022/10/29 08:31:15;;;;;;;40.00;16.08;;;;;;;;;;5124915;27;20132;-80
2022/10/29 08:33:42;;;;;;;36.33;14.82;;;;;;;;;;5125550;27;21050;-79
2022/10/29 08:36:08;;;;;;;32.97;14.43;;;;;;;;;;5127408;27;20070;-79
2022/10/29 08:38:34;;;;;;;33.63;13.55;;;;;;;;;;5131397;27;20055;-80
2022/10/29 08:41:00;;;;;;;29.13;12.93;;;;;;;;;;5122080;27;21026;-80
2022/10/29 08:43:33;;;;;;;25.70;12.82;;;;;;;;;;5123157;27;20054;-80
2022/10/29 08:45:59;;;;;;;29.33;13.55;;;;;;;;;;5141268;27;20055;-80
2022/10/29 08:48:25;;;;;;;25.73;11.88;;;;;;;;;;5119571;27;20059;-80
2022/10/29 08:50:55;;;;;;;30.23;13.20;;;;;;;;;;5133956;27;20058;-80
2022/10/29 08:53:23;;;;;;;29.60;12.27;;;;;;;;;;5123974;27;20050;-80
2022/10/29 08:55:55;;;;;;;26.15;11.65;;;;;;;;;;5127945;27;20621;-80
2022/10/29 08:58:30;;;;;;;27.77;13.50;;;;;;;;;;5146897;27;20051;-79
2022/10/29 09:00:57;;;;;;;26.42;12.55;;;;;;;;;;5128551;27;20051;-78
2022/10/29 09:03:26;;;;;;;29.67;11.40;;;;;;;;;;5143665;27;20051;-80
2022/10/29 09:05:57;;;;;;;25.30;11.13;;;;;;;;;;5124695;27;20063;-80
2022/10/29 09:08:30;;;;;;;23.75;10.80;;;;;;;;;;5128108;27;20054;-80
2022/10/29 09:11:01;;;;;;;23.05;11.15;;;;;;;;;;5121336;27;22120;-80
2022/10/29 09:13:36;;;;;;;30.23;11.45;;;;;;;;;;5133241;27;20059;-80
2022/10/29 09:16:20;;;;;;;19.48;10.20;;;;;;;;;;5147414;27;20058;-80
2022/10/29 09:19:05;;;;;;;22.02;10.38;;;;;;;;;;5139921;27;20531;-79
2022/10/29 09:21:51;;;;;;;21.88;11.48;;;;;;;;;;5125488;27;20425;-79
2022/10/29 09:24:34;;;;;;;18.95;9.55;;;;;;;;;;5132114;27;20063;-80
2022/10/29 09:27:06;;;;;;;21.80;9.75;;;;;;;;;;5128472;27;20064;-80
2022/10/29 09:30:00;;;;;;;22.42;10.25;;;;;;;;;;5145632;27;20501;-79
2022/10/29 09:32:31;;;;;;;25.25;11.50;;;;;;;;;;5126217;27;20053;-80
2022/10/29 09:35:03;;;;;;;23.58;10.75;;;;;;;;;;5128794;27;20120;-79
2022/10/29 09:37:38;;;;;;;22.27;11.50;;;;;;;;;;5127976;27;20055;-78
2022/10/29 09:40:11;;;;;;;27.02;11.98;;;;;;;;;;5128338;27;20055;-80
2022/10/29 09:42:40;;;;;;;22.75;11.70;;;;;;;;;;5141966;27;20059;-79
2022/10/29 09:45:08;;;;;;;24.17;12.73;;;;;;;;;;5128201;27;20047;-79
2022/10/29 09:47:42;;;;;;;25.80;11.82;;;;;;;;;;5147248;27;20043;-79
2022/10/29 09:50:14;;;;;;;24.83;12.98;;;;;;;;;;5145350;27;20470;-78
2022/10/29 09:52:42;;;;;;;22.67;12.30;;;;;;;;;;5124303;27;20055;-80
2022/10/29 09:55:35;;;;;;;22.70;11.90;;;;;;;;;;5124081;27;20051;-79
2022/10/29 09:58:01;;;;;;;24.25;10.63;;;;;;;;;;5137834;27;20066;-79
2022/10/29 10:00:29;;;;;;;23.38;11.88;;;;;;;;;;5128197;27;20051;-80
2022/10/29 10:02:55;;;;;;;22.70;11.00;;;;;;;;;;5140083;27;20055;-79
2022/10/29 10:05:24;;;;;;;25.67;12.50;;;;;;;;;;5147909;27;20082;-81
2022/10/29 10:08:10;;;;;;;25.73;12.68;;;;;;;;;;5118281;27;20089;-79
2022/10/29 10:10:48;;;;;;;25.45;13.05;;;;;;;;;;5148104;27;20050;-80
2022/10/29 10:13:14;;;;;;;27.10;12.40;;;;;;;;;;5131995;27;20811;-80
2022/10/29 10:15:49;;;;;;;21.85;12.52;;;;;;;;;;5127991;27;20130;-80
2022/10/29 10:18:17;;;;;;;28.27;13.40;;;;;;;;;;5129650;27;21143;-80
2022/10/29 10:20:48;;;;;;;23.52;12.05;;;;;;;;;;5127911;27;20055;-80
2022/10/29 10:23:22;;;;;;;21.55;11.90;;;;;;;;;;5145685;27;20063;-80
2022/10/29 10:25:48;;;;;;;26.40;11.82;;;;;;;;;;5141512;27;20105;-79
2022/10/29 10:28:20;;;;;;;29.70;11.80;;;;;;;;;;5120821;27;20050;-81
2022/10/29 10:31:05;;;;;;;20.77;10.90;;;;;;;;;;5127436;27;20093;-80
2022/10/29 10:33:32;;;;;;;28.55;12.05;;;;;;;;;;5121405;27;20876;-80
2022/10/29 10:36:07;;;;;;;23.83;10.85;;;;;;;;;;5128300;27;21212;-80
2022/10/29 10:38:37;;;;;;;23.20;12.55;;;;;;;;;;5131107;27;20062;-79
2022/10/29 10:41:05;;;;;;;23.10;10.60;;;;;;;;;;5131493;27;20055;-80
2022/10/29 10:43:33;;;;;;;26.90;11.25;;;;;;;;;;5125698;27;20031;-79
2022/10/29 10:46:02;;;;;;;29.48;11.18;;;;;;;;;;5129673;27;20063;-79
2022/10/29 10:48:29;;;;;;;20.48;10.15;;;;;;;;;;5130551;27;20050;-80
2022/10/29 10:51:10;;;;;;;22.02;9.90;;;;;;;;;;5143698;27;20043;-80
2022/10/29 10:53:39;;;;;;;24.48;10.52;;;;;;;;;;5149538;27;20078;-80
2022/10/29 10:56:13;;;;;;;25.88;9.30;;;;;;;;;;5123507;27;20051;-80
2022/10/29 10:58:43;;;;;;;21.05;9.25;;;;;;;;;;5149178;27;20059;-79
2022/10/29 11:01:14;;;;;;;18.30;9.13;;;;;;;;;;5124115;27;20058;-80
2022/10/29 11:03:42;;;;;;;18.73;9.52;;;;;;;;;;5126712;27;20559;-79
2022/10/29 11:06:11;;;;;;;22.17;9.95;;;;;;;;;;5122890;27;20078;-81
2022/10/29 11:08:44;;;;;;;21.10;9.40;;;;;;;;;;5108912;27;20063;-79
2022/10/29 11:11:19;;;;;;;20.13;9.38;;;;;;;;;;5115512;27;20059;-79
2022/10/29 11:13:46;;;;;;;21.50;10.45;;;;;;;;;;5143849;27;20058;-80
2022/10/29 11:16:27;;;;;;;17.88;8.98;;;;;;;;;;5127172;27;20059;-78
2022/10/29 11:19:15;;;;;;;19.20;8.70;;;;;;;;;;5139952;27;20051;-79
2022/10/29 11:21:48;;;;;;;23.45;6.95;;;;;;;;;;5126054;27;20058;-79
2022/10/29 11:24:17;;;;;;;15.45;7.63;;;;;;;;;;5117524;27;20059;-80
2022/10/29 11:26:46;;;;;;;20.27;6.93;;;;;;;;;;5141766;27;20047;-78
2022/10/29 11:29:27;;;;;;;14.98;6.03;;;;;;;;;;5123618;27;20424;-79
2022/10/29 11:32:12;;;;;;;15.13;6.68;;;;;;;;;;5114887;27;20501;-78
2022/10/29 11:34:38;;;;;;;15.27;6.53;;;;;;;;;;5126762;27;20058;-80
2022/10/29 11:37:21;;;;;;;21.15;6.53;;;;;;;;;;5117958;27;20059;-79
2022/10/29 11:39:50;;;;;;;14.20;6.53;;;;;;;;;;5120139;27;20055;-80
2022/10/29 11:42:16;;;;;;;14.90;6.82;;;;;;;;;;5147685;27;20100;-79
2022/10/29 11:44:42;;;;;;;16.73;7.05;;;;;;;;;;5127182;27;20501;-78
2022/10/29 11:47:09;;;;;;;19.92;8.65;;;;;;;;;;5125432;27;20055;-79
2022/10/29 11:49:50;;;;;;;17.13;8.63;;;;;;;;;;5125401;27;20550;-79
2022/10/29 11:52:31;;;;;;;16.45;6.78;;;;;;;;;;5125589;27;20554;-79
2022/10/29 11:55:20;;;;;;;14.38;6.90;;;;;;;;;;5128496;27;20047;-79
2022/10/29 11:58:01;;;;;;;16.88;7.05;;;;;;;;;;5147553;27;20059;-79
2022/10/29 12:00:46;;;;;;;15.93;6.82;;;;;;;;;;5125508;27;20051;-79
2022/10/29 12:03:22;;;;;;;19.27;6.22;;;;;;;;;;5146159;27;20051;-80
2022/10/29 12:06:04;;;;;;;16.08;6.75;;;;;;;;;;5120808;27;20050;-80
2022/10/29 12:08:50;;;;;;;18.27;7.32;;;;;;;;;;5135680;27;20910;-79
2022/10/29 12:11:39;;;;;;;16.73;7.85;;;;;;;;;;5112507;27;20055;-79
2022/10/29 12:14:27;;;;;;;18.02;7.43;;;;;;;;;;5094035;27;20398;-79
2022/10/29 12:17:06;;;;;;;16.33;7.90;;;;;;;;;;5138549;27;20040;-79
2022/10/29 12:19:52;;;;;;;18.60;8.18;;;;;;;;;;5119866;27;20067;-80
2022/10/29 12:22:42;;;;;;;12.18;7.10;;;;;;;;;;5145263;27;20914;-79
2022/10/29 12:25:14;;;;;;;16.70;8.00;;;;;;;;;;5124814;27;20770;-79
2022/10/29 12:28:00;;;;;;;19.88;7.65;;;;;;;;;;5124600;27;20055;-79
2022/10/29 12:30:28;;;;;;;16.58;8.52;;;;;;;;;;5137266;27;20062;-79
2022/10/29 12:32:54;;;;;;;15.40;7.45;;;;;;;;;;5130981;27;20521;-79
2022/10/29 12:35:25;;;;;;;14.02;7.68;;;;;;;;;;5123742;27;20054;-79
2022/10/29 12:38:07;;;;;;;18.05;7.80;;;;;;;;;;5142708;27;20051;-79
2022/10/29 12:40:36;;;;;;;18.05;8.27;;;;;;;;;;5136093;27;20051;-78
2022/10/29 12:43:05;;;;;;;17.42;7.82;;;;;;;;;;5129550;27;20116;-79
2022/10/29 12:45:40;;;;;;;19.70;7.55;;;;;;;;;;5142940;27;20059;-79
2022/10/29 12:48:37;;;;;;;20.27;8.02;;;;;;;;;;5128363;27;20043;-79
2022/10/29 12:51:22;;;;;;;16.30;7.18;;;;;;;;;;5124788;27;20062;-79
2022/10/29 12:54:07;;;;;;;18.08;7.80;;;;;;;;;;5137781;27;20052;-78
2022/10/29 12:56:33;;;;;;;14.23;7.18;;;;;;;;;;5114201;27;20054;-79
2022/10/29 12:59:18;;;;;;;18.50;7.88;;;;;;;;;;5138557;27;20051;-79
2022/10/29 13:01:45;;;;;;;16.63;8.15;;;;;;;;;;5113986;27;20066;-78
2022/10/29 13:04:32;;;;;;;23.02;8.10;;;;;;;;;;5120403;27;20084;-78
2022/10/29 13:06:59;;;;;;;17.98;7.45;;;;;;;;;;5123609;27;20055;-79
2022/10/29 13:09:27;;;;;;;18.67;8.40;;;;;;;;;;5118009;27;20051;-79
2022/10/29 13:11:57;;;;;;;15.82;7.25;;;;;;;;;;5125942;27;20058;-79
2022/10/29 13:14:23;;;;;;;16.77;7.18;;;;;;;;;;5124843;27;20108;-79
2022/10/29 13:16:51;;;;;;;20.00;7.43;;;;;;;;;;5118214;27;20522;-79
2022/10/29 13:19:36;;;;;;;16.80;7.90;;;;;;;;;;5129695;27;20055;-79
2022/10/29 13:22:05;;;;;;;19.27;8.23;;;;;;;;;;5138908;27;20054;-79
2022/10/29 13:24:32;;;;;;;15.85;8.20;;;;;;;;;;5123500;27;20056;-79
2022/10/29 13:27:00;;;;;;;19.55;8.50;;;;;;;;;;5142575;27;20581;-79
2022/10/29 13:29:39;;;;;;;17.20;8.63;;;;;;;;;;5122442;27;20488;-79
2022/10/29 13:32:05;;;;;;;16.08;8.15;;;;;;;;;;5126607;27;20051;-79
2022/10/29 13:34:51;;;;;;;17.90;8.32;;;;;;;;;;5128901;27;20055;-79
2022/10/29 13:37:36;;;;;;;20.02;9.02;;;;;;;;;;5127122;27;20785;-79
2022/10/29 13:40:21;;;;;;;21.75;9.15;;;;;;;;;;5149377;27;20046;-79
2022/10/29 13:42:52;;;;;;;19.90;8.82;;;;;;;;;;5128188;27;20057;-79
2022/10/29 13:45:19;;;;;;;20.75;7.93;;;;;;;;;;5147327;27;20104;-79
2022/10/29 13:47:46;;;;;;;23.23;9.02;;;;;;;;;;5149449;27;20062;-79
2022/10/29 13:50:17;;;;;;;19.08;8.70;;;;;;;;;;5144847;27;20450;-79
2022/10/29 13:52:43;;;;;;;;;;;;;;;;;;5127383;27;20043;-79
2022/10/29 13:55:13;;;;;;;15.57;8.30;;;;;;;;;;5142541;27;46607;-79
2022/10/29 13:57:59;;;;;;;18.45;7.90;;;;;;;;;;5118308;27;20051;-79
2022/10/29 14:00:26;;;;;;;18.55;8.43;;;;;;;;;;5126629;27;20055;-79
2022/10/29 14:02:55;;;;;;;22.50;8.32;;;;;;;;;;5119522;27;20304;-79
2022/10/29 14:05:24;;;;;;;16.48;8.23;;;;;;;;;;5118899;27;20055;-78
2022/10/29 14:08:05;;;;;;;17.02;8.45;;;;;;;;;;5147418;27;20059;-79
2022/10/29 14:10:34;;;;;;;16.08;8.25;;;;;;;;;;5139274;27;20059;-79
2022/10/29 14:13:09;;;;;;;21.27;8.30;;;;;;;;;;5145274;27;20054;-79
2022/10/29 14:15:38;;;;;;;18.35;7.90;;;;;;;;;;5149774;27;20051;-79
2022/10/29 14:18:36;;;;;;;17.58;8.45;;;;;;;;;;5129182;27;20579;-80
2022/10/29 14:21:04;;;;;;;21.83;9.20;;;;;;;;;;5092062;27;20059;-79
2022/10/29 14:23:31;;;;;;;28.33;9.85;;;;;;;;;;5131368;27;20647;-79
2022/10/29 14:26:02;;;;;;;17.88;8.82;;;;;;;;;;5132233;27;20047;-79
2022/10/29 14:28:30;;;;;;;20.80;8.90;;;;;;;;;;5122782;27;20055;-79
2022/10/29 14:30:59;;;;;;;20.15;8.82;;;;;;;;;;5149337;27;20051;-79
2022/10/29 14:33:30;;;;;;;20.20;8.35;;;;;;;;;;5122241;27;20059;-79
2022/10/29 14:35:59;;;;;;;16.27;8.25;;;;;;;;;;5140866;27;20642;-79
2022/10/29 14:38:32;;;;;;;15.85;7.95;;;;;;;;;;5148170;27;20056;-79
2022/10/29 14:40:58;;;;;;;18.65;7.50;;;;;;;;;;5118911;27;20051;-79
2022/10/29 14:43:25;;;;;;;17.48;7.40;;;;;;;;;;5117282;27;20055;-79